sensor_id;sensor_type;location;lat;lon;timestamp;pressure;altitude;pressure_sealevel;temperature;humidity
45285;BME280;31026;43.780;25.948;2023-07-29T00:00:12;100573.03;;;23.79;48.53
45285;BME280;31026;43.780;25.948;2023-07-29T00:02:40;100561.88;;;23.98;48.25
45285;BME280;31026;43.780;25.948;2023-07-29T00:05:09;100559.19;;;23.90;48.00
45285;BME280;31026;43.780;25.948;2023-07-29T00:07:40;100553.44;;;24.01;48.07
45285;BME280;31026;43.780;25.948;2023-07-29T00:10:08;100567.81;;;23.86;47.96
45285;BME280;31026;43.780;25.948;2023-07-29T00:12:37;100566.94;;;23.93;47.69
45285;BME280;31026;43.780;25.948;2023-07-29T00:15:05;100575.03;;;23.93;48.05
45285;BME280;31026;43.780;25.948;2023-07-29T00:17:34;100569.16;;;23.90;48.06
45285;BME280;31026;43.780;25.948;2023-07-29T00:20:02;100562.72;;;23.91;48.16
45285;BME280;31026;43.780;25.948;2023-07-29T00:22:31;100581.31;;;23.86;48.36
45285;BME280;31026;43.780;25.948;2023-07-29T00:25:02;100570.28;;;23.95;48.01
45285;BME280;31026;43.780;25.948;2023-07-29T00:27:30;100560.38;;;23.88;47.89
45285;BME280;31026;43.780;25.948;2023-07-29T00:29:58;100558.19;;;23.83;47.57
45285;BME280;31026;43.780;25.948;2023-07-29T00:32:27;100564.41;;;23.75;47.93
45285;BME280;31026;43.780;25.948;2023-07-29T00:34:55;100560.03;;;23.74;48.13
45285;BME280;31026;43.780;25.948;2023-07-29T00:37:26;100563.75;;;23.73;48.25
45285;BME280;31026;43.780;25.948;2023-07-29T00:39:54;100564.78;;;23.64;48.23
45285;BME280;31026;43.780;25.948;2023-07-29T00:42:25;100557.19;;;23.59;48.41
45285;BME280;31026;43.780;25.948;2023-07-29T00:44:54;100562.78;;;23.58;48.76
45285;BME280;31026;43.780;25.948;2023-07-29T00:47:22;100565.47;;;23.58;48.33
45285;BME280;31026;43.780;25.948;2023-07-29T00:49:53;100560.41;;;23.55;48.71
45285;BME280;31026;43.780;25.948;2023-07-29T00:52:21;100553.50;;;23.52;48.97
45285;BME280;31026;43.780;25.948;2023-07-29T00:54:49;100564.47;;;23.51;48.60
45285;BME280;31026;43.780;25.948;2023-07-29T00:57:18;100563.78;;;23.49;48.74
45285;BME280;31026;43.780;25.948;2023-07-29T00:59:50;100554.34;;;23.45;48.83
45285;BME280;31026;43.780;25.948;2023-07-29T01:02:18;100554.69;;;23.50;48.64
45285;BME280;31026;43.780;25.948;2023-07-29T01:04:51;100553.66;;;23.42;49.16
45285;BME280;31026;43.780;25.948;2023-07-29T01:07:21;100557.72;;;23.47;48.74
45285;BME280;31026;43.780;25.948;2023-07-29T01:09:54;100567.00;;;23.44;49.15
45285;BME280;31026;43.780;25.948;2023-07-29T01:12:25;100564.81;;;23.48;49.00
45285;BME280;31026;43.780;25.948;2023-07-29T01:14:59;100588.59;;;23.44;49.17
45285;BME280;31026;43.780;25.948;2023-07-29T01:17:30;100567.50;;;23.48;48.80
45285;BME280;31026;43.780;25.948;2023-07-29T01:20:01;100563.59;;;23.58;48.56
45285;BME280;31026;43.780;25.948;2023-07-29T01:22:33;100557.84;;;23.61;48.37
45285;BME280;31026;43.780;25.948;2023-07-29T01:25:05;100574.75;;;23.63;48.05
45285;BME280;31026;43.780;25.948;2023-07-29T01:27:33;100580.31;;;23.54;48.49
45285;BME280;31026;43.780;25.948;2023-07-29T01:30:02;100560.56;;;23.45;48.88
45285;BME280;31026;43.780;25.948;2023-07-29T01:32:34;100570.22;;;23.48;48.76
45285;BME280;31026;43.780;25.948;2023-07-29T01:35:03;100564.31;;;23.44;48.48
45285;BME280;31026;43.780;25.948;2023-07-29T01:37:36;100569.19;;;23.40;48.42
45285;BME280;31026;43.780;25.948;2023-07-29T01:40:08;100576.25;;;23.41;48.54
45285;BME280;31026;43.780;25.948;2023-07-29T01:42:37;100573.25;;;23.36;48.59
45285;BME280;31026;43.780;25.948;2023-07-29T01:45:06;100581.19;;;23.38;48.62
45285;BME280;31026;43.780;25.948;2023-07-29T01:47:34;100578.97;;;23.33;49.27
45285;BME280;31026;43.780;25.948;2023-07-29T01:50:06;100587.41;;;23.38;48.64
45285;BME280;31026;43.780;25.948;2023-07-29T01:52:34;100585.72;;;23.37;48.86
45285;BME280;31026;43.780;25.948;2023-07-29T01:55:03;100565.81;;;23.30;48.89
45285;BME280;31026;43.780;25.948;2023-07-29T01:57:34;100577.44;;;23.31;48.69
45285;BME280;31026;43.780;25.948;2023-07-29T02:00:03;100577.97;;;23.26;48.75
45285;BME280;31026;43.780;25.948;2023-07-29T02:02:31;100571.53;;;23.35;48.82
45285;BME280;31026;43.780;25.948;2023-07-29T02:05:00;100575.28;;;23.34;48.71
45285;BME280;31026;43.780;25.948;2023-07-29T02:07:28;100565.16;;;23.36;48.78
45285;BME280;31026;43.780;25.948;2023-07-29T02:09:56;100566.97;;;23.28;48.83
45285;BME280;31026;43.780;25.948;2023-07-29T02:12:24;100569.34;;;23.31;48.53
45285;BME280;31026;43.780;25.948;2023-07-29T02:14:55;100553.34;;;23.29;48.76
45285;BME280;31026;43.780;25.948;2023-07-29T02:17:23;100563.13;;;23.22;48.95
45285;BME280;31026;43.780;25.948;2023-07-29T02:19:52;100572.56;;;23.26;48.82
45285;BME280;31026;43.780;25.948;2023-07-29T02:22:20;100557.72;;;23.22;48.77
45285;BME280;31026;43.780;25.948;2023-07-29T02:24:48;100558.72;;;23.21;48.74
45285;BME280;31026;43.780;25.948;2023-07-29T02:27:16;100553.34;;;23.21;48.84
45285;BME280;31026;43.780;25.948;2023-07-29T02:29:45;100557.72;;;23.22;48.72
45285;BME280;31026;43.780;25.948;2023-07-29T02:32:16;100563.63;;;23.17;49.05
45285;BME280;31026;43.780;25.948;2023-07-29T02:34:44;100569.00;;;23.17;48.77
45285;BME280;31026;43.780;25.948;2023-07-29T02:37:12;100564.47;;;23.18;48.87
45285;BME280;31026;43.780;25.948;2023-07-29T02:39:40;100567.50;;;23.23;48.70
45285;BME280;31026;43.780;25.948;2023-07-29T02:42:09;100567.84;;;23.20;48.96
45285;BME280;31026;43.780;25.948;2023-07-29T02:44:37;100577.28;;;23.16;48.88
45285;BME280;31026;43.780;25.948;2023-07-29T02:47:05;100570.19;;;23.15;48.88
45285;BME280;31026;43.780;25.948;2023-07-29T02:49:36;100571.91;;;23.16;48.46
45285;BME280;31026;43.780;25.948;2023-07-29T02:52:05;100574.91;;;23.21;48.08
45285;BME280;31026;43.780;25.948;2023-07-29T02:54:33;100590.06;;;23.14;48.30
45285;BME280;31026;43.780;25.948;2023-07-29T02:57:01;100586.38;;;23.15;48.60
45285;BME280;31026;43.780;25.948;2023-07-29T02:59:30;100587.72;;;23.11;48.42
45285;BME280;31026;43.780;25.948;2023-07-29T03:01:58;100589.25;;;23.13;48.47
45285;BME280;31026;43.780;25.948;2023-07-29T03:04:26;100604.28;;;23.16;48.46
45285;BME280;31026;43.780;25.948;2023-07-29T03:06:57;100608.13;;;23.13;48.61
45285;BME280;31026;43.780;25.948;2023-07-29T03:09:26;100615.38;;;23.13;48.57
45285;BME280;31026;43.780;25.948;2023-07-29T03:11:54;100625.50;;;23.19;48.54
45285;BME280;31026;43.780;25.948;2023-07-29T03:14:23;100612.31;;;23.08;48.64
45285;BME280;31026;43.780;25.948;2023-07-29T03:16:52;100604.41;;;23.06;48.48
45285;BME280;31026;43.780;25.948;2023-07-29T03:19:21;100630.88;;;23.11;48.83
45285;BME280;31026;43.780;25.948;2023-07-29T03:21:49;100630.53;;;23.14;48.94
45285;BME280;31026;43.780;25.948;2023-07-29T03:24:20;100626.31;;;23.11;49.00
45285;BME280;31026;43.780;25.948;2023-07-29T03:26:48;100636.28;;;23.19;48.66
45285;BME280;31026;43.780;25.948;2023-07-29T03:29:16;100634.09;;;23.22;48.15
45285;BME280;31026;43.780;25.948;2023-07-29T03:31:44;100639.00;;;23.19;48.44
45285;BME280;31026;43.780;25.948;2023-07-29T03:34:13;100641.00;;;23.25;48.17
45285;BME280;31026;43.780;25.948;2023-07-29T03:36:41;100645.06;;;23.21;48.05
45285;BME280;31026;43.780;25.948;2023-07-29T03:39:11;100645.06;;;23.21;48.15
45285;BME280;31026;43.780;25.948;2023-07-29T03:41:42;100633.94;;;23.16;48.55
45285;BME280;31026;43.780;25.948;2023-07-29T03:44:10;100636.97;;;23.13;48.17
45285;BME280;31026;43.780;25.948;2023-07-29T03:46:38;100637.28;;;23.10;48.06
45285;BME280;31026;43.780;25.948;2023-07-29T03:49:07;100639.34;;;23.16;47.95
45285;BME280;31026;43.780;25.948;2023-07-29T03:51:35;100620.44;;;23.16;48.18
45285;BME280;31026;43.780;25.948;2023-07-29T03:54:03;100633.22;;;23.14;47.86
45285;BME280;31026;43.780;25.948;2023-07-29T03:56:31;100637.31;;;23.26;47.82
45285;BME280;31026;43.780;25.948;2023-07-29T03:59:04;100574.88;;;22.88;47.61
45285;BME280;31026;43.780;25.948;2023-07-29T04:01:33;100636.97;;;23.29;47.55
45285;BME280;31026;43.780;25.948;2023-07-29T04:04:01;100645.59;;;23.33;47.36
45285;BME280;31026;43.780;25.948;2023-07-29T04:06:30;100628.03;;;23.37;47.52
45285;BME280;31026;43.780;25.948;2023-07-29T04:08:58;100624.66;;;23.35;48.13
45285;BME280;31026;43.780;25.948;2023-07-29T04:11:26;100626.19;;;23.37;47.62
45285;BME280;31026;43.780;25.948;2023-07-29T04:13:55;100619.47;;;23.50;47.33
45285;BME280;31026;43.780;25.948;2023-07-29T04:16:26;100618.59;;;23.57;46.90
45285;BME280;31026;43.780;25.948;2023-07-29T04:18:54;100622.47;;;23.55;48.43
45285;BME280;31026;43.780;25.948;2023-07-29T04:21:22;100632.63;;;23.86;47.52
45285;BME280;31026;43.780;25.948;2023-07-29T04:23:51;100628.91;;;23.87;47.17
45285;BME280;31026;43.780;25.948;2023-07-29T04:26:19;100615.41;;;23.78;47.38
45285;BME280;31026;43.780;25.948;2023-07-29T04:28:47;100621.31;;;23.82;47.21
45285;BME280;31026;43.780;25.948;2023-07-29T04:31:16;100619.28;;;23.84;46.95
45285;BME280;31026;43.780;25.948;2023-07-29T04:33:46;100618.59;;;23.90;47.16
45285;BME280;31026;43.780;25.948;2023-07-29T04:36:15;100626.56;;;23.84;47.20
45285;BME280;31026;43.780;25.948;2023-07-29T04:38:43;100621.81;;;23.86;46.93
45285;BME280;31026;43.780;25.948;2023-07-29T04:41:11;100623.13;;;23.73;46.82
45285;BME280;31026;43.780;25.948;2023-07-29T04:43:39;100617.94;;;23.63;47.27
45285;BME280;31026;43.780;25.948;2023-07-29T04:46:08;100623.81;;;23.59;47.20
45285;BME280;31026;43.780;25.948;2023-07-29T04:48:36;100626.88;;;23.72;46.72
45285;BME280;31026;43.780;25.948;2023-07-29T04:51:07;100622.47;;;23.55;47.45
45285;BME280;31026;43.780;25.948;2023-07-29T04:53:36;100622.84;;;23.60;47.29
45285;BME280;31026;43.780;25.948;2023-07-29T04:56:04;100619.81;;;23.88;46.41
45285;BME280;31026;43.780;25.948;2023-07-29T04:58:32;100631.75;;;23.77;47.21
45285;BME280;31026;43.780;25.948;2023-07-29T05:01:01;100624.34;;;23.46;47.30
45285;BME280;31026;43.780;25.948;2023-07-29T05:03:29;100630.25;;;23.50;47.38
45285;BME280;31026;43.780;25.948;2023-07-29T05:05:58;100639.34;;;23.65;47.63
45285;BME280;31026;43.780;25.948;2023-07-29T05:08:29;100639.69;;;23.95;47.45
45285;BME280;31026;43.780;25.948;2023-07-29T05:10:57;100624.09;;;24.21;46.98
45285;BME280;31026;43.780;25.948;2023-07-29T05:13:25;100627.28;;;24.25;46.62
45285;BME280;31026;43.780;25.948;2023-07-29T05:15:53;100641.03;;;24.15;47.49
45285;BME280;31026;43.780;25.948;2023-07-29T05:18:22;100641.00;;;24.24;48.27
45285;BME280;31026;43.780;25.948;2023-07-29T05:20:50;100632.19;;;24.30;48.57
45285;BME280;31026;43.780;25.948;2023-07-29T05:23:18;100638.84;;;24.58;47.78
45285;BME280;31026;43.780;25.948;2023-07-29T05:25:49;100643.94;;;24.61;47.79
45285;BME280;31026;43.780;25.948;2023-07-29T05:28:18;100645.13;;;24.42;49.01
45285;BME280;31026;43.780;25.948;2023-07-29T05:30:46;100649.16;;;24.55;49.12
45285;BME280;31026;43.780;25.948;2023-07-29T05:33:14;100661.16;;;24.60;47.60
45285;BME280;31026;43.780;25.948;2023-07-29T05:35:42;100651.88;;;24.63;47.39
45285;BME280;31026;43.780;25.948;2023-07-29T05:38:12;100663.34;;;24.57;48.58
45285;BME280;31026;43.780;25.948;2023-07-29T05:40:40;100657.28;;;24.63;49.13
45285;BME280;31026;43.780;25.948;2023-07-29T05:43:11;100657.16;;;24.88;48.76
45285;BME280;31026;43.780;25.948;2023-07-29T05:45:40;100658.31;;;24.93;48.99
45285;BME280;31026;43.780;25.948;2023-07-29T05:48:08;100649.88;;;24.88;48.74
45285;BME280;31026;43.780;25.948;2023-07-29T05:50:36;100641.41;;;24.91;48.87
45285;BME280;31026;43.780;25.948;2023-07-29T05:53:04;100643.22;;;24.99;48.13
45285;BME280;31026;43.780;25.948;2023-07-29T05:55:33;100642.31;;;25.07;49.95
45285;BME280;31026;43.780;25.948;2023-07-29T05:58:01;100642.13;;;25.39;48.77
45285;BME280;31026;43.780;25.948;2023-07-29T06:00:32;100648.50;;;25.24;49.41
45285;BME280;31026;43.780;25.948;2023-07-29T06:03:01;100651.88;;;25.26;52.94
45285;BME280;31026;43.780;25.948;2023-07-29T06:05:29;100654.91;;;25.31;52.13
45285;BME280;31026;43.780;25.948;2023-07-29T06:07:57;100652.31;;;25.75;51.88
45285;BME280;31026;43.780;25.948;2023-07-29T06:10:27;100640.94;;;25.80;51.55
45285;BME280;31026;43.780;25.948;2023-07-29T06:12:55;100629.84;;;25.52;51.14
45285;BME280;31026;43.780;25.948;2023-07-29T06:15:23;100643.44;;;25.44;52.45
45285;BME280;31026;43.780;25.948;2023-07-29T06:17:54;100641.81;;;25.34;51.79
45285;BME280;31026;43.780;25.948;2023-07-29T06:20:22;100648.97;;;25.50;50.90
45285;BME280;31026;43.780;25.948;2023-07-29T06:22:51;100632.69;;;25.35;51.11
45285;BME280;31026;43.780;25.948;2023-07-29T06:25:19;100624.09;;;25.32;51.65
45285;BME280;31026;43.780;25.948;2023-07-29T06:27:47;100651.91;;;25.17;51.74
45285;BME280;31026;43.780;25.948;2023-07-29T06:30:16;100632.25;;;24.92;48.53
45285;BME280;31026;43.780;25.948;2023-07-29T06:32:44;100634.78;;;24.63;49.92
45285;BME280;31026;43.780;25.948;2023-07-29T06:35:16;100631.13;;;24.47;50.01
45285;BME280;31026;43.780;25.948;2023-07-29T06:37:44;100635.56;;;24.32;50.65
45285;BME280;31026;43.780;25.948;2023-07-29T06:40:13;100648.44;;;24.05;51.04
45285;BME280;31026;43.780;25.948;2023-07-29T06:42:41;100640.03;;;23.92;51.19
45285;BME280;31026;43.780;25.948;2023-07-29T06:45:09;100658.59;;;23.95;51.00
45285;BME280;31026;43.780;25.948;2023-07-29T06:47:38;100647.81;;;23.87;51.76
45285;BME280;31026;43.780;25.948;2023-07-29T06:50:06;100651.84;;;23.82;52.78
45285;BME280;31026;43.780;25.948;2023-07-29T06:52:37;100637.50;;;23.74;53.53
45285;BME280;31026;43.780;25.948;2023-07-29T06:55:06;100636.19;;;23.78;53.88
45285;BME280;31026;43.780;25.948;2023-07-29T06:57:34;100630.94;;;23.85;53.71
45285;BME280;31026;43.780;25.948;2023-07-29T07:00:03;100645.25;;;23.93;53.95
45285;BME280;31026;43.780;25.948;2023-07-29T07:02:31;100635.63;;;23.99;53.67
45285;BME280;31026;43.780;25.948;2023-07-29T07:05:00;100648.97;;;23.92;53.86
45285;BME280;31026;43.780;25.948;2023-07-29T07:07:28;100636.28;;;24.01;53.94
45285;BME280;31026;43.780;25.948;2023-07-29T07:09:59;100632.25;;;23.97;53.98
45285;BME280;31026;43.780;25.948;2023-07-29T07:12:27;100641.38;;;23.96;54.00
45285;BME280;31026;43.780;25.948;2023-07-29T07:14:56;100639.69;;;23.87;54.05
45285;BME280;31026;43.780;25.948;2023-07-29T07:17:24;100665.69;;;23.79;54.36
45285;BME280;31026;43.780;25.948;2023-07-29T07:19:52;100636.31;;;23.68;53.57
45285;BME280;31026;43.780;25.948;2023-07-29T07:22:20;100635.81;;;23.65;53.34
45285;BME280;31026;43.780;25.948;2023-07-29T07:24:49;100635.66;;;23.66;53.82
45285;BME280;31026;43.780;25.948;2023-07-29T07:27:19;100629.41;;;23.66;54.78
45285;BME280;31026;43.780;25.948;2023-07-29T07:29:48;100625.69;;;23.75;54.49
45285;BME280;31026;43.780;25.948;2023-07-29T07:32:16;100625.03;;;23.81;53.70
45285;BME280;31026;43.780;25.948;2023-07-29T07:34:44;100632.97;;;23.82;53.98
45285;BME280;31026;43.780;25.948;2023-07-29T07:37:13;100623.50;;;23.87;53.63
45285;BME280;31026;43.780;25.948;2023-07-29T07:39:41;100625.34;;;23.94;53.73
45285;BME280;31026;43.780;25.948;2023-07-29T07:42:09;100624.03;;;23.82;53.87
45285;BME280;31026;43.780;25.948;2023-07-29T07:44:40;100622.47;;;23.79;53.67
45285;BME280;31026;43.780;25.948;2023-07-29T07:47:08;100607.97;;;23.80;53.55
45285;BME280;31026;43.780;25.948;2023-07-29T07:49:37;100620.63;;;23.88;52.86
45285;BME280;31026;43.780;25.948;2023-07-29T07:52:05;100616.44;;;23.86;52.15
45285;BME280;31026;43.780;25.948;2023-07-29T07:54:33;100624.16;;;23.89;52.38
45285;BME280;31026;43.780;25.948;2023-07-29T07:57:02;100619.44;;;23.74;52.10
45285;BME280;31026;43.780;25.948;2023-07-29T07:59:30;100632.28;;;23.56;52.09
45285;BME280;31026;43.780;25.948;2023-07-29T08:02:01;100609.81;;;23.55;52.92
45285;BME280;31026;43.780;25.948;2023-07-29T08:04:29;100610.34;;;23.59;52.17
45285;BME280;31026;43.780;25.948;2023-07-29T08:06:58;100607.59;;;23.75;51.52
45285;BME280;31026;43.780;25.948;2023-07-29T08:09:26;100627.88;;;23.79;51.05
45285;BME280;31026;43.780;25.948;2023-07-29T08:11:54;100602.75;;;23.79;51.08
45285;BME280;31026;43.780;25.948;2023-07-29T08:14:22;100593.09;;;23.76;51.29
45285;BME280;31026;43.780;25.948;2023-07-29T08:16:51;100600.03;;;23.87;50.36
45285;BME280;31026;43.780;25.948;2023-07-29T08:19:22;100594.13;;;23.92;51.44
45285;BME280;31026;43.780;25.948;2023-07-29T08:21:51;100592.78;;;23.96;51.26
45285;BME280;31026;43.780;25.948;2023-07-29T08:24:19;100599.84;;;23.97;52.48
45285;BME280;31026;43.780;25.948;2023-07-29T08:26:47;100593.59;;;23.96;53.48
45285;BME280;31026;43.780;25.948;2023-07-29T08:29:15;100598.00;;;23.97;54.45
45285;BME280;31026;43.780;25.948;2023-07-29T08:31:44;100604.56;;;23.95;54.57
45285;BME280;31026;43.780;25.948;2023-07-29T08:34:12;100592.06;;;24.10;54.80
45285;BME280;31026;43.780;25.948;2023-07-29T08:36:43;100606.91;;;24.06;56.57
45285;BME280;31026;43.780;25.948;2023-07-29T08:39:11;100589.50;;;24.09;58.02
45285;BME280;31026;43.780;25.948;2023-07-29T08:41:41;100595.56;;;24.19;58.55
45285;BME280;31026;43.780;25.948;2023-07-29T08:44:12;100599.81;;;24.13;58.87
45285;BME280;31026;43.780;25.948;2023-07-29T08:46:42;100586.78;;;24.17;58.29
45285;BME280;31026;43.780;25.948;2023-07-29T08:49:11;100587.13;;;24.22;57.59
45285;BME280;31026;43.780;25.948;2023-07-29T08:51:39;100585.09;;;24.24;57.93
45285;BME280;31026;43.780;25.948;2023-07-29T08:54:12;100593.38;;;24.14;58.48
45285;BME280;31026;43.780;25.948;2023-07-29T08:56:41;100578.22;;;24.05;58.77
45285;BME280;31026;43.780;25.948;2023-07-29T08:59:10;100590.13;;;24.27;58.16
45285;BME280;31026;43.780;25.948;2023-07-29T09:01:39;100578.91;;;23.99;59.51
45285;BME280;31026;43.780;25.948;2023-07-29T09:04:07;100566.41;;;24.06;58.86
45285;BME280;31026;43.780;25.948;2023-07-29T09:06:36;100551.50;;;24.18;58.60
45285;BME280;31026;43.780;25.948;2023-07-29T09:09:04;100573.47;;;24.15;58.94
45285;BME280;31026;43.780;25.948;2023-07-29T09:11:35;100562.69;;;23.99;58.80
45285;BME280;31026;43.780;25.948;2023-07-29T09:14:03;100561.03;;;23.98;58.90
45285;BME280;31026;43.780;25.948;2023-07-29T09:16:32;100556.97;;;24.02;59.95
45285;BME280;31026;43.780;25.948;2023-07-29T09:19:00;100556.59;;;24.13;60.45
45285;BME280;31026;43.780;25.948;2023-07-29T09:21:29;100561.00;;;24.06;60.72
45285;BME280;31026;43.780;25.948;2023-07-29T09:23:57;100552.19;;;24.12;60.16
45285;BME280;31026;43.780;25.948;2023-07-29T09:26:30;100559.66;;;24.02;60.33
45285;BME280;31026;43.780;25.948;2023-07-29T09:29:01;100557.28;;;23.99;60.53
45285;BME280;31026;43.780;25.948;2023-07-29T09:31:30;100550.88;;;24.08;60.49
45285;BME280;31026;43.780;25.948;2023-07-29T09:33:58;100546.13;;;24.10;60.48
45285;BME280;31026;43.780;25.948;2023-07-29T09:36:29;100548.84;;;24.02;60.61
45285;BME280;31026;43.780;25.948;2023-07-29T09:38:58;100545.53;;;23.92;60.05
45285;BME280;31026;43.780;25.948;2023-07-29T09:41:27;100552.25;;;23.96;60.14
45285;BME280;31026;43.780;25.948;2023-07-29T09:43:56;100544.47;;;24.01;59.44
45285;BME280;31026;43.780;25.948;2023-07-29T09:46:32;100561.84;;;24.07;58.43
45285;BME280;31026;43.780;25.948;2023-07-29T09:49:01;100529.97;;;23.94;58.19
45285;BME280;31026;43.780;25.948;2023-07-29T09:51:29;100549.75;;;23.86;57.99
45285;BME280;31026;43.780;25.948;2023-07-29T09:53:58;100540.81;;;23.86;57.85
45285;BME280;31026;43.780;25.948;2023-07-29T09:56:30;100568.97;;;23.83;58.58
45285;BME280;31026;43.780;25.948;2023-07-29T09:58:58;100562.06;;;23.89;58.63
45285;BME280;31026;43.780;25.948;2023-07-29T10:01:29;100548.38;;;23.90;57.69
45285;BME280;31026;43.780;25.948;2023-07-29T10:04:00;100550.06;;;23.91;56.96
45285;BME280;31026;43.780;25.948;2023-07-29T10:06:28;100544.50;;;23.93;56.55
45285;BME280;31026;43.780;25.948;2023-07-29T10:08:57;100551.94;;;23.82;56.81
45285;BME280;31026;43.780;25.948;2023-07-29T10:11:25;100542.34;;;23.63;57.60
45285;BME280;31026;43.780;25.948;2023-07-29T10:13:54;100533.06;;;23.66;57.89
45285;BME280;31026;43.780;25.948;2023-07-29T10:16:22;100528.97;;;23.87;57.32
45285;BME280;31026;43.780;25.948;2023-07-29T10:18:54;100534.75;;;23.84;57.64
45285;BME280;31026;43.780;25.948;2023-07-29T10:21:23;100532.03;;;23.84;58.04
45285;BME280;31026;43.780;25.948;2023-07-29T10:23:53;100531.97;;;24.00;57.42
45285;BME280;31026;43.780;25.948;2023-07-29T10:26:21;100533.66;;;24.01;57.17
45285;BME280;31026;43.780;25.948;2023-07-29T10:28:50;100523.59;;;23.87;57.61
45285;BME280;31026;43.780;25.948;2023-07-29T10:31:20;100524.94;;;23.74;59.17
45285;BME280;31026;43.780;25.948;2023-07-29T10:33:50;100524.94;;;23.82;60.08
45285;BME280;31026;43.780;25.948;2023-07-29T10:36:21;100530.00;;;23.86;59.74
45285;BME280;31026;43.780;25.948;2023-07-29T10:38:49;100523.72;;;24.01;59.28
45285;BME280;31026;43.780;25.948;2023-07-29T10:41:18;100520.81;;;24.03;59.23
45285;BME280;31026;43.780;25.948;2023-07-29T10:43:46;100533.16;;;24.06;59.25
45285;BME280;31026;43.780;25.948;2023-07-29T10:46:15;100515.41;;;24.03;59.72
45285;BME280;31026;43.780;25.948;2023-07-29T10:48:44;100516.28;;;24.04;59.69
45285;BME280;31026;43.780;25.948;2023-07-29T10:51:28;100499.41;;;23.93;60.30
45285;BME280;31026;43.780;25.948;2023-07-29T10:53:59;100513.91;;;24.00;60.21
45285;BME280;31026;43.780;25.948;2023-07-29T10:56:28;100498.41;;;23.94;60.61
45285;BME280;31026;43.780;25.948;2023-07-29T10:58:58;100498.22;;;24.04;60.50
45285;BME280;31026;43.780;25.948;2023-07-29T11:01:27;100496.53;;;23.95;61.09
45285;BME280;31026;43.780;25.948;2023-07-29T11:12:08;100497.25;;;23.89;61.83
45285;BME280;31026;43.780;25.948;2023-07-29T11:14:56;100506.53;;;23.86;62.03
45285;BME280;31026;43.780;25.948;2023-07-29T11:17:24;100503.69;;;23.88;62.16
45285;BME280;31026;43.780;25.948;2023-07-29T11:19:53;100502.66;;;23.89;61.81
45285;BME280;31026;43.780;25.948;2023-07-29T11:22:23;100489.16;;;23.89;60.32
45285;BME280;31026;43.780;25.948;2023-07-29T11:24:52;100501.06;;;24.02;60.61
45285;BME280;31026;43.780;25.948;2023-07-29T11:27:23;100497.53;;;24.02;60.57
45285;BME280;31026;43.780;25.948;2023-07-29T11:29:56;100484.56;;;23.97;60.87
45285;BME280;31026;43.780;25.948;2023-07-29T11:32:25;100478.31;;;23.97;60.74
45285;BME280;31026;43.780;25.948;2023-07-29T11:34:53;100473.22;;;24.02;60.95
45285;BME280;31026;43.780;25.948;2023-07-29T11:37:22;100483.69;;;23.97;60.96
45285;BME280;31026;43.780;25.948;2023-07-29T11:39:50;100483.00;;;24.03;60.80
45285;BME280;31026;43.780;25.948;2023-07-29T11:42:18;100471.94;;;23.90;60.27
45285;BME280;31026;43.780;25.948;2023-07-29T11:44:49;100465.88;;;23.79;60.15
45285;BME280;31026;43.780;25.948;2023-07-29T11:47:17;100475.00;;;23.78;61.12
45285;BME280;31026;43.780;25.948;2023-07-29T11:49:46;100463.88;;;23.81;61.84
45285;BME280;31026;43.780;25.948;2023-07-29T11:52:14;100471.28;;;23.79;61.82
45285;BME280;31026;43.780;25.948;2023-07-29T11:54:44;100460.59;;;23.94;61.35
45285;BME280;31026;43.780;25.948;2023-07-29T11:57:12;100444.06;;;23.89;61.44
45285;BME280;31026;43.780;25.948;2023-07-29T11:59:41;100445.19;;;24.03;61.08
45285;BME280;31026;43.780;25.948;2023-07-29T12:02:13;100451.47;;;23.95;61.36
45285;BME280;31026;43.780;25.948;2023-07-29T12:04:43;100481.66;;;23.99;61.13
45285;BME280;31026;43.780;25.948;2023-07-29T12:07:12;100449.91;;;24.01;61.08
45285;BME280;31026;43.780;25.948;2023-07-29T12:09:40;100437.75;;;24.05;60.96
45285;BME280;31026;43.780;25.948;2023-07-29T12:12:09;100453.72;;;24.15;60.79
45285;BME280;31026;43.780;25.948;2023-07-29T12:14:37;100431.63;;;24.11;60.83
45285;BME280;31026;43.780;25.948;2023-07-29T12:17:06;100433.13;;;23.82;61.47
45285;BME280;31026;43.780;25.948;2023-07-29T12:19:38;100436.50;;;23.85;60.00
45285;BME280;31026;43.780;25.948;2023-07-29T12:22:07;100439.19;;;23.85;59.87
45285;BME280;31026;43.780;25.948;2023-07-29T12:24:36;100432.47;;;23.80;61.37
45285;BME280;31026;43.780;25.948;2023-07-29T12:27:05;100433.13;;;23.82;61.96
45285;BME280;31026;43.780;25.948;2023-07-29T12:29:39;100434.41;;;23.95;61.42
45285;BME280;31026;43.780;25.948;2023-07-29T12:32:08;100435.94;;;23.97;62.20
45285;BME280;31026;43.780;25.948;2023-07-29T12:34:39;100433.00;;;24.07;61.70
45285;BME280;31026;43.780;25.948;2023-07-29T12:37:07;100418.06;;;23.96;62.61
45285;BME280;31026;43.780;25.948;2023-07-29T12:39:39;100433.06;;;23.99;62.41
45285;BME280;31026;43.780;25.948;2023-07-29T12:42:08;100419.69;;;24.06;62.01
45285;BME280;31026;43.780;25.948;2023-07-29T12:44:37;100424.44;;;23.95;62.74
45285;BME280;31026;43.780;25.948;2023-07-29T12:47:06;100429.84;;;23.95;63.01
45285;BME280;31026;43.780;25.948;2023-07-29T12:49:39;100416.22;;;23.89;63.13
45285;BME280;31026;43.780;25.948;2023-07-29T12:52:07;100419.75;;;23.89;62.94
45285;BME280;31026;43.780;25.948;2023-07-29T12:54:35;100420.91;;;23.95;62.72
45285;BME280;31026;43.780;25.948;2023-07-29T12:57:05;100411.28;;;24.00;61.24